sensor_id;sensor_type;location;lat;lon;timestamp;temperature;humidity
69546;SHT31;56766;52.260;20.746;2022-12-18T00:01:33;-3.42;83.93
69546;SHT31;56766;52.260;20.746;2022-12-18T00:04:04;-3.40;83.94
69546;SHT31;56766;52.260;20.746;2022-12-18T00:06:35;-3.33;83.99
69546;SHT31;56766;52.260;20.746;2022-12-18T00:09:02;-3.29;83.89
69546;SHT31;56766;52.260;20.746;2022-12-18T00:11:30;-3.29;83.80
69546;SHT31;56766;52.260;20.746;2022-12-18T00:13:59;-3.27;83.89
69546;SHT31;56766;52.260;20.746;2022-12-18T00:16:28;-3.22;83.94
69546;SHT31;56766;52.260;20.746;2022-12-18T00:18:56;-3.21;83.80
69546;SHT31;56766;52.260;20.746;2022-12-18T00:21:28;-3.20;83.80
69546;SHT31;56766;52.260;20.746;2022-12-18T00:23:56;-3.19;83.67
69546;SHT31;56766;52.260;20.746;2022-12-18T00:26:27;-3.22;83.60
69546;SHT31;56766;52.260;20.746;2022-12-18T00:28:59;-3.30;83.65
69546;SHT31;56766;52.260;20.746;2022-12-18T00:31:37;-3.33;83.81
69546;SHT31;56766;52.260;20.746;2022-12-18T00:34:04;-3.33;83.90
69546;SHT31;56766;52.260;20.746;2022-12-18T00:36:33;-3.33;83.90
69546;SHT31;56766;52.260;20.746;2022-12-18T00:39:03;-3.34;83.89
69546;SHT31;56766;52.260;20.746;2022-12-18T00:41:31;-3.35;83.90
69546;SHT31;56766;52.260;20.746;2022-12-18T00:44:18;-3.36;83.92
69546;SHT31;56766;52.260;20.746;2022-12-18T00:46:47;-3.35;84.00
69546;SHT31;56766;52.260;20.746;2022-12-18T00:49:17;-3.34;84.01
69546;SHT31;56766;52.260;20.746;2022-12-18T00:51:45;-3.32;84.07
69546;SHT31;56766;52.260;20.746;2022-12-18T00:54:12;-3.28;84.02
69546;SHT31;56766;52.260;20.746;2022-12-18T00:56:39;-3.30;83.94
69546;SHT31;56766;52.260;20.746;2022-12-18T00:59:06;-3.34;83.99
69546;SHT31;56766;52.260;20.746;2022-12-18T01:01:33;-3.38;84.02
69546;SHT31;56766;52.260;20.746;2022-12-18T01:04:02;-3.40;84.16
69546;SHT31;56766;52.260;20.746;2022-12-18T01:06:29;-3.38;84.20
69546;SHT31;56766;52.260;20.746;2022-12-18T01:08:57;-3.35;84.20
69546;SHT31;56766;52.260;20.746;2022-12-18T01:11:24;-3.30;84.20
69546;SHT31;56766;52.260;20.746;2022-12-18T01:13:53;-3.28;84.12
69546;SHT31;56766;52.260;20.746;2022-12-18T01:16:21;-3.28;84.11
69546;SHT31;56766;52.260;20.746;2022-12-18T01:18:52;-3.31;84.19
69546;SHT31;56766;52.260;20.746;2022-12-18T01:21:21;-3.30;84.24
69546;SHT31;56766;52.260;20.746;2022-12-18T01:23:56;-3.25;84.26
69546;SHT31;56766;52.260;20.746;2022-12-18T01:26:25;-3.19;84.24
69546;SHT31;56766;52.260;20.746;2022-12-18T01:28:54;-3.19;84.20
69546;SHT31;56766;52.260;20.746;2022-12-18T01:31:27;-3.19;84.20
69546;SHT31;56766;52.260;20.746;2022-12-18T01:33:56;-3.19;84.21
69546;SHT31;56766;52.260;20.746;2022-12-18T01:36:27;-3.17;84.28
69546;SHT31;56766;52.260;20.746;2022-12-18T01:38:55;-3.11;84.40
69546;SHT31;56766;52.260;20.746;2022-12-18T01:41:26;-3.05;84.28
69546;SHT31;56766;52.260;20.746;2022-12-18T01:50:20;-2.94;84.10
69546;SHT31;56766;52.260;20.746;2022-12-18T01:53:06;-2.92;84.08
69546;SHT31;56766;52.260;20.746;2022-12-18T01:55:57;-2.85;84.10
69546;SHT31;56766;52.260;20.746;2022-12-18T02:01:17;-2.78;83.90
69546;SHT31;56766;52.260;20.746;2022-12-18T02:03:46;-2.79;83.85
69546;SHT31;56766;52.260;20.746;2022-12-18T02:06:16;-2.79;83.89
69546;SHT31;56766;52.260;20.746;2022-12-18T02:12:38;-2.76;83.85
69546;SHT31;56766;52.260;20.746;2022-12-18T02:17:38;-2.72;83.68
69546;SHT31;56766;52.260;20.746;2022-12-18T02:20:35;-2.71;83.70
69546;SHT31;56766;52.260;20.746;2022-12-18T02:29:26;-2.69;83.61
69546;SHT31;56766;52.260;20.746;2022-12-18T02:32:00;-2.71;83.60
69546;SHT31;56766;52.260;20.746;2022-12-18T02:34:35;-2.73;83.65
69546;SHT31;56766;52.260;20.746;2022-12-18T02:37:11;-2.72;83.68
69546;SHT31;56766;52.260;20.746;2022-12-18T02:39:44;-2.71;83.70
69546;SHT31;56766;52.260;20.746;2022-12-18T02:42:16;-2.69;83.60
69546;SHT31;56766;52.260;20.746;2022-12-18T02:44:46;-2.69;83.60
69546;SHT31;56766;52.260;20.746;2022-12-18T02:47:20;-2.72;83.53
69546;SHT31;56766;52.260;20.746;2022-12-18T02:50:22;-2.73;83.60
69546;SHT31;56766;52.260;20.746;2022-12-18T02:53:17;-2.76;83.59
69546;SHT31;56766;52.260;20.746;2022-12-18T03:04:21;-2.89;83.65
69546;SHT31;56766;52.260;20.746;2022-12-18T03:07:20;-2.91;83.70
69546;SHT31;56766;52.260;20.746;2022-12-18T03:10:01;-2.91;83.64
69546;SHT31;56766;52.260;20.746;2022-12-18T03:12:36;-2.94;83.40
69546;SHT31;56766;52.260;20.746;2022-12-18T03:15:23;-2.97;83.38
69546;SHT31;56766;52.260;20.746;2022-12-18T03:18:01;-2.97;83.45
69546;SHT31;56766;52.260;20.746;2022-12-18T03:20:34;-3.02;83.30
69546;SHT31;56766;52.260;20.746;2022-12-18T03:23:14;-3.07;83.16
69546;SHT31;56766;52.260;20.746;2022-12-18T03:25:45;-3.09;83.17
69546;SHT31;56766;52.260;20.746;2022-12-18T03:28:18;-3.13;83.06
69546;SHT31;56766;52.260;20.746;2022-12-18T03:30:55;-3.17;83.07
69546;SHT31;56766;52.260;20.746;2022-12-18T03:33:36;-3.18;83.14
69546;SHT31;56766;52.260;20.746;2022-12-18T03:36:07;-3.16;83.17
69546;SHT31;56766;52.260;20.746;2022-12-18T03:38:35;-3.20;83.04
69546;SHT31;56766;52.260;20.746;2022-12-18T03:41:25;-3.25;83.03
69546;SHT31;56766;52.260;20.746;2022-12-18T03:47:27;-3.37;83.20
69546;SHT31;56766;52.260;20.746;2022-12-18T03:50:22;-3.47;83.20
69546;SHT31;56766;52.260;20.746;2022-12-18T03:56:32;-3.71;83.30
69546;SHT31;56766;52.260;20.746;2022-12-18T03:59:05;-3.81;83.37
69546;SHT31;56766;52.260;20.746;2022-12-18T04:01:39;-3.93;83.52
69546;SHT31;56766;52.260;20.746;2022-12-18T04:04:12;-4.05;83.72
69546;SHT31;56766;52.260;20.746;2022-12-18T04:06:42;-4.16;83.88
69546;SHT31;56766;52.260;20.746;2022-12-18T04:09:12;-4.25;83.88
69546;SHT31;56766;52.260;20.746;2022-12-18T04:11:41;-4.32;84.04
69546;SHT31;56766;52.260;20.746;2022-12-18T04:14:10;-4.37;84.13
69546;SHT31;56766;52.260;20.746;2022-12-18T04:16:37;-4.36;84.29
69546;SHT31;56766;52.260;20.746;2022-12-18T04:19:04;-4.34;84.37
69546;SHT31;56766;52.260;20.746;2022-12-18T04:21:31;-4.30;84.43
69546;SHT31;56766;52.260;20.746;2022-12-18T04:23:58;-4.28;84.40
69546;SHT31;56766;52.260;20.746;2022-12-18T04:26:24;-4.26;84.40
69546;SHT31;56766;52.260;20.746;2022-12-18T04:28:51;-4.24;84.43
69546;SHT31;56766;52.260;20.746;2022-12-18T04:31:18;-4.19;84.42
69546;SHT31;56766;52.260;20.746;2022-12-18T04:33:44;-4.16;84.40
69546;SHT31;56766;52.260;20.746;2022-12-18T04:36:11;-4.15;84.37
69546;SHT31;56766;52.260;20.746;2022-12-18T04:38:38;-4.16;84.32
69546;SHT31;56766;52.260;20.746;2022-12-18T04:41:05;-4.15;84.31
69546;SHT31;56766;52.260;20.746;2022-12-18T04:43:32;-4.15;84.30
69546;SHT31;56766;52.260;20.746;2022-12-18T04:46:03;-4.17;84.23
69546;SHT31;56766;52.260;20.746;2022-12-18T04:48:33;-4.23;84.14
69546;SHT31;56766;52.260;20.746;2022-12-18T04:51:00;-4.30;84.07
69546;SHT31;56766;52.260;20.746;2022-12-18T04:53:27;-4.39;84.05
69546;SHT31;56766;52.260;20.746;2022-12-18T04:56:12;-4.48;84.06
69546;SHT31;56766;52.260;20.746;2022-12-18T04:58:43;-4.54;84.16
69546;SHT31;56766;52.260;20.746;2022-12-18T05:01:12;-4.54;84.26
69546;SHT31;56766;52.260;20.746;2022-12-18T05:03:40;-4.54;84.30
69546;SHT31;56766;52.260;20.746;2022-12-18T05:06:08;-4.55;84.28
69546;SHT31;56766;52.260;20.746;2022-12-18T05:08:35;-4.58;84.20
69546;SHT31;56766;52.260;20.746;2022-12-18T05:11:06;-4.61;84.19
69546;SHT31;56766;52.260;20.746;2022-12-18T05:13:35;-4.69;84.20
69546;SHT31;56766;52.260;20.746;2022-12-18T05:16:02;-4.74;84.16
69546;SHT31;56766;52.260;20.746;2022-12-18T05:18:30;-4.76;84.30
69546;SHT31;56766;52.260;20.746;2022-12-18T05:20:58;-4.76;84.24
69546;SHT31;56766;52.260;20.746;2022-12-18T05:23:26;-4.78;84.20
69546;SHT31;56766;52.260;20.746;2022-12-18T05:25:59;-4.77;84.30
69546;SHT31;56766;52.260;20.746;2022-12-18T05:28:30;-4.76;84.30
69546;SHT31;56766;52.260;20.746;2022-12-18T05:31:00;-4.73;84.30
69546;SHT31;56766;52.260;20.746;2022-12-18T05:33:32;-4.70;84.30
69546;SHT31;56766;52.260;20.746;2022-12-18T05:36:02;-4.65;84.38
69546;SHT31;56766;52.260;20.746;2022-12-18T05:38:32;-4.61;84.40
69546;SHT31;56766;52.260;20.746;2022-12-18T05:41:00;-4.53;84.38
69546;SHT31;56766;52.260;20.746;2022-12-18T05:43:27;-4.50;84.24
69546;SHT31;56766;52.260;20.746;2022-12-18T05:45:55;-4.49;84.21
69546;SHT31;56766;52.260;20.746;2022-12-18T05:48:23;-4.50;84.28
69546;SHT31;56766;52.260;20.746;2022-12-18T05:50:51;-4.51;84.38
69546;SHT31;56766;52.260;20.746;2022-12-18T05:53:19;-4.47;84.47
69546;SHT31;56766;52.260;20.746;2022-12-18T05:55:47;-4.45;84.44
69546;SHT31;56766;52.260;20.746;2022-12-18T05:58:15;-4.43;84.49
69546;SHT31;56766;52.260;20.746;2022-12-18T06:00:45;-4.44;84.53
69546;SHT31;56766;52.260;20.746;2022-12-18T06:03:13;-4.45;84.62
69546;SHT31;56766;52.260;20.746;2022-12-18T06:05:43;-4.42;84.67
69546;SHT31;56766;52.260;20.746;2022-12-18T06:08:12;-4.40;84.64
69546;SHT31;56766;52.260;20.746;2022-12-18T06:10:40;-4.41;84.62
69546;SHT31;56766;52.260;20.746;2022-12-18T06:13:07;-4.41;84.70
69546;SHT31;56766;52.260;20.746;2022-12-18T06:15:37;-4.42;84.68
69546;SHT31;56766;52.260;20.746;2022-12-18T06:18:04;-4.41;84.70
69546;SHT31;56766;52.260;20.746;2022-12-18T06:20:31;-4.41;84.70
69546;SHT31;56766;52.260;20.746;2022-12-18T06:22:58;-4.37;84.76
69546;SHT31;56766;52.260;20.746;2022-12-18T06:25:24;-4.33;84.71
69546;SHT31;56766;52.260;20.746;2022-12-18T06:27:51;-4.31;84.71
69546;SHT31;56766;52.260;20.746;2022-12-18T06:30:18;-4.28;84.65
69546;SHT31;56766;52.260;20.746;2022-12-18T06:32:45;-4.26;84.63
69546;SHT31;56766;52.260;20.746;2022-12-18T06:35:11;-4.24;84.67
69546;SHT31;56766;52.260;20.746;2022-12-18T06:37:38;-4.21;84.61
69546;SHT31;56766;52.260;20.746;2022-12-18T06:40:05;-4.20;84.62
69546;SHT31;56766;52.260;20.746;2022-12-18T06:42:32;-4.14;84.71
69546;SHT31;56766;52.260;20.746;2022-12-18T06:44:59;-4.08;84.62
69546;SHT31;56766;52.260;20.746;2022-12-18T06:47:26;-4.02;84.59
69546;SHT31;56766;52.260;20.746;2022-12-18T06:49:52;-3.98;84.57
69546;SHT31;56766;52.260;20.746;2022-12-18T06:52:19;-3.93;84.50
69546;SHT31;56766;52.260;20.746;2022-12-18T06:54:46;-3.88;84.45
69546;SHT31;56766;52.260;20.746;2022-12-18T06:57:13;-3.85;84.41
69546;SHT31;56766;52.260;20.746;2022-12-18T06:59:39;-3.83;84.43
69546;SHT31;56766;52.260;20.746;2022-12-18T07:02:11;-3.80;84.48
69546;SHT31;56766;52.260;20.746;2022-12-18T07:04:38;-3.73;84.48
69546;SHT31;56766;52.260;20.746;2022-12-18T07:07:05;-3.68;84.42
69546;SHT31;56766;52.260;20.746;2022-12-18T07:09:32;-3.63;84.35
69546;SHT31;56766;52.260;20.746;2022-12-18T07:11:59;-3.64;84.34
69546;SHT31;56766;52.260;20.746;2022-12-18T07:14:26;-3.61;84.46
69546;SHT31;56766;52.260;20.746;2022-12-18T07:16:53;-3.56;84.48
69546;SHT31;56766;52.260;20.746;2022-12-18T07:19:20;-3.56;84.40
69546;SHT31;56766;52.260;20.746;2022-12-18T07:21:50;-3.56;84.42
69546;SHT31;56766;52.260;20.746;2022-12-18T07:24:18;-3.54;84.50
69546;SHT31;56766;52.260;20.746;2022-12-18T07:26:47;-3.46;84.54
69546;SHT31;56766;52.260;20.746;2022-12-18T07:29:14;-3.39;84.48
69546;SHT31;56766;52.260;20.746;2022-12-18T07:31:41;-3.33;84.40
69546;SHT31;56766;52.260;20.746;2022-12-18T07:34:14;-3.26;84.36
69546;SHT31;56766;52.260;20.746;2022-12-18T07:36:41;-3.21;84.17
69546;SHT31;56766;52.260;20.746;2022-12-18T07:39:08;-3.15;84.17
69546;SHT31;56766;52.260;20.746;2022-12-18T07:41:35;-3.07;84.13
69546;SHT31;56766;52.260;20.746;2022-12-18T07:44:01;-2.99;84.00
69546;SHT31;56766;52.260;20.746;2022-12-18T07:46:28;-2.90;84.00
69546;SHT31;56766;52.260;20.746;2022-12-18T07:48:55;-2.78;83.95
69546;SHT31;56766;52.260;20.746;2022-12-18T07:51:21;-2.65;83.80
69546;SHT31;56766;52.260;20.746;2022-12-18T07:53:48;-2.58;83.60
69546;SHT31;56766;52.260;20.746;2022-12-18T07:56:15;-2.54;83.43
69546;SHT31;56766;52.260;20.746;2022-12-18T07:58:41;-2.52;83.27
69546;SHT31;56766;52.260;20.746;2022-12-18T08:01:10;-2.50;83.25
69546;SHT31;56766;52.260;20.746;2022-12-18T08:03:40;-2.46;83.12
69546;SHT31;56766;52.260;20.746;2022-12-18T08:06:09;-2.43;82.97
69546;SHT31;56766;52.260;20.746;2022-12-18T08:08:36;-2.43;82.98
69546;SHT31;56766;52.260;20.746;2022-12-18T08:11:03;-2.36;82.94
69546;SHT31;56766;52.260;20.746;2022-12-18T08:13:30;-2.32;82.79
69546;SHT31;56766;52.260;20.746;2022-12-18T08:16:03;-2.27;82.84
69546;SHT31;56766;52.260;20.746;2022-12-18T08:18:33;-2.19;82.55
69546;SHT31;56766;52.260;20.746;2022-12-18T08:23:36;-2.16;82.55
69546;SHT31;56766;52.260;20.746;2022-12-18T08:26:03;-2.08;82.42
69546;SHT31;56766;52.260;20.746;2022-12-18T08:28:30;-2.00;82.32
69546;SHT31;56766;52.260;20.746;2022-12-18T08:30:57;-1.92;82.22
69546;SHT31;56766;52.260;20.746;2022-12-18T08:33:24;-1.86;81.98
69546;SHT31;56766;52.260;20.746;2022-12-18T08:35:52;-1.82;81.69
69546;SHT31;56766;52.260;20.746;2022-12-18T08:38:19;-1.79;81.59
69546;SHT31;56766;52.260;20.746;2022-12-18T08:40:46;-1.77;81.64
69546;SHT31;56766;52.260;20.746;2022-12-18T08:43:12;-1.69;81.74
69546;SHT31;56766;52.260;20.746;2022-12-18T08:45:58;-1.60;81.48
69546;SHT31;56766;52.260;20.746;2022-12-18T08:48:24;-1.52;81.42
69546;SHT31;56766;52.260;20.746;2022-12-18T08:50:59;-1.48;81.15
69546;SHT31;56766;52.260;20.746;2022-12-18T08:53:26;-1.42;81.04
69546;SHT31;56766;52.260;20.746;2022-12-18T08:55:53;-1.34;80.74
69546;SHT31;56766;52.260;20.746;2022-12-18T08:58:20;-1.35;80.12
69546;SHT31;56766;52.260;20.746;2022-12-18T09:00:47;-1.40;80.04
69546;SHT31;56766;52.260;20.746;2022-12-18T09:03:16;-1.36;80.28
69546;SHT31;56766;52.260;20.746;2022-12-18T09:05:45;-1.29;80.32
69546;SHT31;56766;52.260;20.746;2022-12-18T09:08:12;-1.21;80.14
69546;SHT31;56766;52.260;20.746;2022-12-18T09:10:46;-1.12;80.04
69546;SHT31;56766;52.260;20.746;2022-12-18T09:13:15;-1.05;79.68
69546;SHT31;56766;52.260;20.746;2022-12-18T09:15:45;-1.06;79.25
69546;SHT31;56766;52.260;20.746;2022-12-18T09:18:16;-1.10;78.95
69546;SHT31;56766;52.260;20.746;2022-12-18T09:20:43;-1.11;78.94
69546;SHT31;56766;52.260;20.746;2022-12-18T09:23:11;-1.09;78.89
69546;SHT31;56766;52.260;20.746;2022-12-18T09:25:39;-1.09;78.61
69546;SHT31;56766;52.260;20.746;2022-12-18T09:28:16;-1.16;78.46
69546;SHT31;56766;52.260;20.746;2022-12-18T09:30:47;-1.13;78.91
69546;SHT31;56766;52.260;20.746;2022-12-18T09:33:16;-1.07;78.93
69546;SHT31;56766;52.260;20.746;2022-12-18T09:35:45;-0.99;78.69
69546;SHT31;56766;52.260;20.746;2022-12-18T09:38:17;-0.90;78.71
69546;SHT31;56766;52.260;20.746;2022-12-18T09:40:51;-0.75;78.60
69546;SHT31;56766;52.260;20.746;2022-12-18T09:43:26;-0.60;78.38
69546;SHT31;56766;52.260;20.746;2022-12-18T09:46:08;-0.52;78.28
69546;SHT31;56766;52.260;20.746;2022-12-18T09:48:46;-0.43;78.10
69546;SHT31;56766;52.260;20.746;2022-12-18T09:51:49;-0.38;78.01
69546;SHT31;56766;52.260;20.746;2022-12-18T09:54:25;-0.28;77.83
69546;SHT31;56766;52.260;20.746;2022-12-18T09:56:59;-0.30;76.98
69546;SHT31;56766;52.260;20.746;2022-12-18T09:59:33;-0.34;77.27
69546;SHT31;56766;52.260;20.746;2022-12-18T10:02:15;-0.37;77.06
69546;SHT31;56766;52.260;20.746;2022-12-18T10:05:04;-0.38;77.13
69546;SHT31;56766;52.260;20.746;2022-12-18T10:17:31;-0.34;76.60
69546;SHT31;56766;52.260;20.746;2022-12-18T10:20:32;-0.30;76.52
69546;SHT31;56766;52.260;20.746;2022-12-18T10:23:38;-0.06;76.67
69546;SHT31;56766;52.260;20.746;2022-12-18T10:26:12;-0.04;75.89
69546;SHT31;56766;52.260;20.746;2022-12-18T10:28:40;-0.08;75.85
69546;SHT31;56766;52.260;20.746;2022-12-18T10:31:20;-0.14;75.77
69546;SHT31;56766;52.260;20.746;2022-12-18T10:33:49;-0.09;76.04
69546;SHT31;56766;52.260;20.746;2022-12-18T10:36:16;-0.11;75.20
69546;SHT31;56766;52.260;20.746;2022-12-18T10:38:42;-0.05;75.90
69546;SHT31;56766;52.260;20.746;2022-12-18T10:43:47;0.15;75.99
69546;SHT31;56766;52.260;20.746;2022-12-18T10:46:19;0.26;75.97
69546;SHT31;56766;52.260;20.746;2022-12-18T10:54:06;0.22;75.67
69546;SHT31;56766;52.260;20.746;2022-12-18T10:56:45;0.28;75.84
69546;SHT31;56766;52.260;20.746;2022-12-18T10:59:16;0.41;75.78
69546;SHT31;56766;52.260;20.746;2022-12-18T11:04:23;0.67;75.28
69546;SHT31;56766;52.260;20.746;2022-12-18T11:07:07;0.71;75.02
69546;SHT31;56766;52.260;20.746;2022-12-18T11:09:37;0.70;74.86
69546;SHT31;56766;52.260;20.746;2022-12-18T11:12:17;0.70;74.84
69546;SHT31;56766;52.260;20.746;2022-12-18T11:14:49;0.62;74.37
69546;SHT31;56766;52.260;20.746;2022-12-18T11:19:59;0.42;74.44
69546;SHT31;56766;52.260;20.746;2022-12-18T11:22:31;0.40;74.66
69546;SHT31;56766;52.260;20.746;2022-12-18T11:25:18;0.32;74.12
69546;SHT31;56766;52.260;20.746;2022-12-18T11:27:56;0.25;74.54
69546;SHT31;56766;52.260;20.746;2022-12-18T11:33:21;0.46;74.35
69546;SHT31;56766;52.260;20.746;2022-12-18T11:35:56;0.53;74.58
69546;SHT31;56766;52.260;20.746;2022-12-18T11:38:41;0.57;74.22
69546;SHT31;56766;52.260;20.746;2022-12-18T11:44:19;0.45;74.46
69546;SHT31;56766;52.260;20.746;2022-12-18T11:47:02;0.49;74.59
69546;SHT31;56766;52.260;20.746;2022-12-18T11:49:36;0.50;74.66
69546;SHT31;56766;52.260;20.746;2022-12-18T11:52:28;0.55;74.47
69546;SHT31;56766;52.260;20.746;2022-12-18T11:55:16;0.59;74.37
69546;SHT31;56766;52.260;20.746;2022-12-18T12:10:56;0.74;74.24
69546;SHT31;56766;52.260;20.746;2022-12-18T12:13:28;0.70;74.40
69546;SHT31;56766;52.260;20.746;2022-12-18T12:16:57;0.68;74.62
69546;SHT31;56766;52.260;20.746;2022-12-18T12:19:20;0.63;74.69
69546;SHT31;56766;52.260;20.746;2022-12-18T12:25:11;0.40;74.74
69546;SHT31;56766;52.260;20.746;2022-12-18T12:33:53;0.16;74.77
69546;SHT31;56766;52.260;20.746;2022-12-18T12:37:13;0.09;75.13
69546;SHT31;56766;52.260;20.746;2022-12-18T12:39:59;0.02;75.43
69546;SHT31;56766;52.260;20.746;2022-12-18T12:43:10;0.03;75.37
69546;SHT31;56766;52.260;20.746;2022-12-18T12:45:50;0.05;75.29
69546;SHT31;56766;52.260;20.746;2022-12-18T12:51:39;-0.05;75.33
69546;SHT31;56766;52.260;20.746;2022-12-18T12:54:24;-0.16;75.57
69546;SHT31;56766;52.260;20.746;2022-12-18T12:57:02;-0.23;75.90
69546;SHT31;56766;52.260;20.746;2022-12-18T13:00:03;-0.29;75.87
69546;SHT31;56766;52.260;20.746;2022-12-18T13:06:04;-0.49;75.90
69546;SHT31;56766;52.260;20.746;2022-12-18T13:09:00;-0.58;76.23
69546;SHT31;56766;52.260;20.746;2022-12-18T13:11:40;-0.66;76.23
69546;SHT31;56766;52.260;20.746;2022-12-18T13:14:38;-0.80;76.50
69546;SHT31;56766;52.260;20.746;2022-12-18T13:22:38;-1.03;76.40
69546;SHT31;56766;52.260;20.746;2022-12-18T13:25:28;-1.12;76.58
69546;SHT31;56766;52.260;20.746;2022-12-18T13:28:10;-1.20;76.58
69546;SHT31;56766;52.260;20.746;2022-12-18T13:30:50;-1.34;76.56
69546;SHT31;56766;52.260;20.746;2022-12-18T13:40:59;-1.63;77.45
69546;SHT31;56766;52.260;20.746;2022-12-18T13:43:43;-1.66;77.57
69546;SHT31;56766;52.260;20.746;2022-12-18T13:46:24;-1.74;77.78
69546;SHT31;56766;52.260;20.746;2022-12-18T13:51:52;-1.79;78.15
69546;SHT31;56766;52.260;20.746;2022-12-18T13:54:36;-1.85;78.34
69546;SHT31;56766;52.260;20.746;2022-12-18T13:57:30;-1.85;78.50
69546;SHT31;56766;52.260;20.746;2022-12-18T14:02:56;-1.95;78.67
69546;SHT31;56766;52.260;20.746;2022-12-18T14:05:32;-1.96;78.81
69546;SHT31;56766;52.260;20.746;2022-12-18T14:08:10;-1.94;78.79
69546;SHT31;56766;52.260;20.746;2022-12-18T14:10:46;-1.94;78.77
69546;SHT31;56766;52.260;20.746;2022-12-18T14:13:31;-1.96;78.80
69546;SHT31;56766;52.260;20.746;2022-12-18T14:16:04;-2.01;78.85
69546;SHT31;56766;52.260;20.746;2022-12-18T14:18:48;-2.03;78.93
69546;SHT31;56766;52.260;20.746;2022-12-18T14:21:25;-2.06;78.95
69546;SHT31;56766;52.260;20.746;2022-12-18T14:24:18;-2.13;79.08
69546;SHT31;56766;52.260;20.746;2022-12-18T14:26:49;-2.20;79.33
69546;SHT31;56766;52.260;20.746;2022-12-18T14:29:31;-2.22;79.43
69546;SHT31;56766;52.260;20.746;2022-12-18T14:34:33;-2.29;79.61
69546;SHT31;56766;52.260;20.746;2022-12-18T14:37:00;-2.31;79.63
69546;SHT31;56766;52.260;20.746;2022-12-18T14:39:26;-2.32;79.65
69546;SHT31;56766;52.260;20.746;2022-12-18T14:41:53;-2.33;79.62
69546;SHT31;56766;52.260;20.746;2022-12-18T14:44:20;-2.33;79.70
69546;SHT31;56766;52.260;20.746;2022-12-18T14:46:50;-2.33;79.73
69546;SHT31;56766;52.260;20.746;2022-12-18T14:49:24;-2.36;79.81
69546;SHT31;56766;52.260;20.746;2022-12-18T14:51:58;-2.38;79.91
69546;SHT31;56766;52.260;20.746;2022-12-18T14:54:33;-2.36;79.91
69546;SHT31;56766;52.260;20.746;2022-12-18T14:57:23;-2.37;79.89
69546;SHT31;56766;52.260;20.746;2022-12-18T14:59:52;-2.39;79.84
69546;SHT31;56766;52.260;20.746;2022-12-18T15:02:26;-2.43;79.91
69546;SHT31;56766;52.260;20.746;2022-12-18T15:05:19;-2.49;80.04
69546;SHT31;56766;52.260;20.746;2022-12-18T15:07:58;-2.50;80.12
69546;SHT31;56766;52.260;20.746;2022-12-18T15:10:33;-2.51;80.22
69546;SHT31;56766;52.260;20.746;2022-12-18T15:23:18;-2.48;80.40
69546;SHT31;56766;52.260;20.746;2022-12-18T15:26:08;-2.48;80.38
69546;SHT31;56766;52.260;20.746;2022-12-18T15:34:09;-2.51;80.46
69546;SHT31;56766;52.260;20.746;2022-12-18T15:36:41;-2.46;80.51
69546;SHT31;56766;52.260;20.746;2022-12-18T15:39:11;-2.45;80.49
69546;SHT31;56766;52.260;20.746;2022-12-18T15:41:39;-2.50;80.50
69546;SHT31;56766;52.260;20.746;2022-12-18T15:44:23;-2.49;80.54
69546;SHT31;56766;52.260;20.746;2022-12-18T15:46:52;-2.51;80.62
69546;SHT31;56766;52.260;20.746;2022-12-18T15:49:18;-2.51;80.71
69546;SHT31;56766;52.260;20.746;2022-12-18T15:51:51;-2.51;80.77
69546;SHT31;56766;52.260;20.746;2022-12-18T15:54:21;-2.50;80.70
69546;SHT31;56766;52.260;20.746;2022-12-18T15:57:10;-2.55;80.72
69546;SHT31;56766;52.260;20.746;2022-12-18T15:59:55;-2.53;80.81
69546;SHT31;56766;52.260;20.746;2022-12-18T16:02:25;-2.52;80.81
69546;SHT31;56766;52.260;20.746;2022-12-18T16:04:54;-2.50;80.85
69546;SHT31;56766;52.260;20.746;2022-12-18T16:07:21;-2.52;80.86
69546;SHT31;56766;52.260;20.746;2022-12-18T16:09:48;-2.51;80.99
69546;SHT31;56766;52.260;20.746;2022-12-18T16:12:24;-2.47;80.93
69546;SHT31;56766;52.260;20.746;2022-12-18T16:14:52;-2.44;80.81
69546;SHT31;56766;52.260;20.746;2022-12-18T16:17:18;-2.49;80.63
69546;SHT31;56766;52.260;20.746;2022-12-18T16:19:45;-2.62;80.83
69546;SHT31;56766;52.260;20.746;2022-12-18T16:22:22;-2.62;81.00
69546;SHT31;56766;52.260;20.746;2022-12-18T16:24:55;-2.64;80.98
69546;SHT31;56766;52.260;20.746;2022-12-18T16:27:24;-2.67;80.97
69546;SHT31;56766;52.260;20.746;2022-12-18T16:29:51;-2.71;80.97
69546;SHT31;56766;52.260;20.746;2022-12-18T16:32:20;-2.71;81.07
69546;SHT31;56766;52.260;20.746;2022-12-18T16:34:48;-2.71;81.00
69546;SHT31;56766;52.260;20.746;2022-12-18T16:37:15;-2.71;80.99
69546;SHT31;56766;52.260;20.746;2022-12-18T16:39:43;-2.74;80.94
69546;SHT31;56766;52.260;20.746;2022-12-18T16:42:11;-2.79;80.97
69546;SHT31;56766;52.260;20.746;2022-12-18T16:44:43;-2.79;81.14
69546;SHT31;56766;52.260;20.746;2022-12-18T16:47:12;-2.76;81.16
69546;SHT31;56766;52.260;20.746;2022-12-18T16:49:39;-2.73;81.15
69546;SHT31;56766;52.260;20.746;2022-12-18T16:52:07;-2.73;81.15
69546;SHT31;56766;52.260;20.746;2022-12-18T16:54:34;-2.73;81.16
69546;SHT31;56766;52.260;20.746;2022-12-18T16:57:03;-2.75;81.17
69546;SHT31;56766;52.260;20.746;2022-12-18T16:59:33;-2.76;81.20
69546;SHT31;56766;52.260;20.746;2022-12-18T17:02:01;-2.76;81.27
69546;SHT31;56766;52.260;20.746;2022-12-18T17:04:30;-2.78;81.31
69546;SHT31;56766;52.260;20.746;2022-12-18T17:06:57;-2.78;81.38
69546;SHT31;56766;52.260;20.746;2022-12-18T17:09:24;-2.81;81.30
69546;SHT31;56766;52.260;20.746;2022-12-18T17:11:52;-2.88;81.38
69546;SHT31;56766;52.260;20.746;2022-12-18T17:14:22;-2.92;81.53
69546;SHT31;56766;52.260;20.746;2022-12-18T17:16:54;-2.91;81.59
69546;SHT31;56766;52.260;20.746;2022-12-18T17:19:26;-2.89;81.62
69546;SHT31;56766;52.260;20.746;2022-12-18T17:21:53;-2.88;81.59
69546;SHT31;56766;52.260;20.746;2022-12-18T17:24:20;-2.91;81.62
69546;SHT31;56766;52.260;20.746;2022-12-18T17:26:48;-2.92;81.61
69546;SHT31;56766;52.260;20.746;2022-12-18T17:29:17;-2.97;81.61
69546;SHT31;56766;52.260;20.746;2022-12-18T17:31:46;-3.03;81.66
69546;SHT31;56766;52.260;20.746;2022-12-18T17:34:14;-3.12;81.72
69546;SHT31;56766;52.260;20.746;2022-12-18T17:36:41;-3.19;81.84
69546;SHT31;56766;52.260;20.746;2022-12-18T17:39:16;-3.22;81.95
69546;SHT31;56766;52.260;20.746;2022-12-18T17:41:45;-3.26;81.90
69546;SHT31;56766;52.260;20.746;2022-12-18T17:44:12;-3.30;81.96
69546;SHT31;56766;52.260;20.746;2022-12-18T17:46:39;-3.32;81.90
69546;SHT31;56766;52.260;20.746;2022-12-18T17:49:06;-3.37;81.86
69546;SHT31;56766;52.260;20.746;2022-12-18T17:51:32;-3.40;81.94
69546;SHT31;56766;52.260;20.746;2022-12-18T17:53:59;-3.46;81.97
69546;SHT31;56766;52.260;20.746;2022-12-18T17:56:26;-3.47;82.10
69546;SHT31;56766;52.260;20.746;2022-12-18T17:58:53;-3.52;82.08
69546;SHT31;56766;52.260;20.746;2022-12-18T18:01:23;-3.57;82.18
69546;SHT31;56766;52.260;20.746;2022-12-18T18:03:52;-3.57;82.22
69546;SHT31;56766;52.260;20.746;2022-12-18T18:06:22;-3.62;82.29